Edwards Air Force Base
KEDW : rendu visible

Aérodrome :











RETROUVEZ-NOUS SUR...

 
LOGIN :

S'inscrire | Disclaimer

   EN    FR    IT 

 









Légende :    VFR   VFR Marginal   IFR   IFR Intensif   IFR Très Intensif
Visi : 
Plafond : 
>= 8 km
>= 3000ft
5 à 8 km
1000 à 3000 ft
1500m à 5 km
500 à 1000 ft
800 à 1500m
200 à 500 ft
< 800m
< 200 ft
Symboles :   Orages  Brouillard  Fortes neiges  Fortes précipitations  Vent > 20 kt






- Altitude de l'aérodrome : 2312 ft


KEDW - Edwards Air Force Base

DERNIER METAR :
  • 081228Z AUTO 00000KT 10SM -RA OVC017 08/08 A2990 RMK AO2 CIG 017V021 SLP124

METARs EXPIRÉS :
  • 081158Z AUTO 27006KT 10SM -RA OVC028 08/08 A2989 RMK AO2 OVC V BKN SLP121 P0001 60002 70036 T00770077 10088 20076 58017
  • 081058Z AUTO 27005KT 10SM -RA OVC035 08/08 A2990 RMK AO2 PRESFR SLP124 P0001 T00790078
  • 081043Z AUTO 00000KT 10SM -RA BKN035 08/08 A2992 RMK AO2 SLP131
  • 081028Z AUTO 00000KT 10SM -RA SCT036 08/08 A2992 RMK AO2 SLP131
  • 080958Z AUTO 31005KT 10SM -RA OVC038 08/08 A2995 RMK AO2 DZB40E42RAB42 SLP140 P0000 T00800076

TAF COR TAF KEDW
Valide du 07 à 21h jusqu'au 08 à 19h UTC


072102Z 0721/0819 VRB06KT 9000 -SHRA SCT025 BKN050 OVC250 610606 510009 QNH2991INS
TEMPO 0801/0803 VRB15G25KT 8000 -TSRA SCT025 BKN050CB BKN250
BECMG 0802/0803 VRB06KT 9000 -SHRA SCT020 BKN030 OVC050 610604 QNH2991INS TX12/0722Z TN04/0813Z LAST NO AMDS AFT 0721 NEXT 0813



MET'MAP, la Météo Aéronautique d'un coup d'oeil ! - Copyright ORBIFLY Décembre 2007 - Disclaimer

ORBIFLY MET'MAP TEAM :

Programmation & Développement : Alexandra Zaïnal
Sur une idée originale de : Baudouin d'Aumeries
Assistance à la programmation : Marc-Olivier Méhu
Soutien technique & logistique : Manuel Goepfert

Contact : metmap@orbifly.com




SOURCES & CREDITS :

   NOAA       Earth
Advisory